Time;durP1;ratioP1;P1;durP2;ratioP2;P2;SDS_P1;SDS_P2;PMS_P1;PMS_P2;Temp;Humidity;BMP_temperature;BMP_pressure;BME280_temperature;BME280_humidity;BME280_pressure;Samples;Min_cycle;Max_cycle;Signal;HPM_P1;HPM_P2
2021/06/03 00:00:43;;;;;;;4.97;1.90;;;19.30;85.50;;;;;;4996042;28;20048;-85
2021/06/03 00:03:10;;;;;;;4.68;2.05;;;19.30;85.20;;;;;;5010837;28;20042;-87
2021/06/03 00:05:39;;;;;;;5.47;2.13;;;19.20;85.80;;;;;;5027264;28;20113;-87
2021/06/03 00:08:05;;;;;;;6.07;1.73;;;19.20;85.90;;;;;;4992342;28;20042;-87
2021/06/03 00:10:34;;;;;;;3.80;1.98;;;19.20;85.70;;;;;;4983588;28;20107;-87
2021/06/03 00:13:00;;;;;;;3.78;1.52;;;19.20;85.80;;;;;;5013889;28;20050;-87
2021/06/03 00:15:27;;;;;;;3.88;1.83;;;19.20;85.40;;;;;;5013829;28;20077;-88
2021/06/03 00:17:53;;;;;;;2.50;1.55;;;19.20;85.10;;;;;;4998468;28;20455;-87
2021/06/03 00:20:22;;;;;;;4.80;2.10;;;19.20;85.20;;;;;;5012679;28;20089;-87
2021/06/03 00:22:49;;;;;;;5.45;2.00;;;19.20;85.80;;;;;;5013398;28;20050;-87
2021/06/03 00:25:14;;;;;;;3.22;1.70;;;19.10;85.90;;;;;;5013067;28;20138;-87
2021/06/03 00:27:42;;;;;;;4.60;2.25;;;20.50;87.40;;;;;;5013122;28;20502;-87
2021/06/03 00:30:09;;;;;;;3.05;1.90;;;19.10;86.30;;;;;;5014235;28;20042;-87
2021/06/03 00:32:35;;;;;;;3.53;1.80;;;19.10;86.50;;;;;;5013364;28;20050;-87
2021/06/03 00:35:01;;;;;;;4.30;2.00;;;19.00;86.80;;;;;;5014083;28;20042;-87
2021/06/03 00:37:27;;;;;;;4.25;2.10;;;18.90;87.40;;;;;;4996193;28;20057;-87
2021/06/03 00:39:53;;;;;;;3.83;2.30;;;19.20;87.80;;;;;;5013438;28;20554;-87
2021/06/03 00:42:19;;;;;;;3.28;2.03;;;18.80;88.40;;;;;;5017809;28;20042;-87
2021/06/03 00:44:46;;;;;;;3.33;1.83;;;18.80;88.00;;;;;;5014587;28;20121;-85
2021/06/03 00:47:12;;;;;;;4.15;2.15;;;18.70;88.00;;;;;;5013270;28;20140;-86
2021/06/03 00:49:38;;;;;;;5.88;2.30;;;18.60;88.50;;;;;;5015742;28;20037;-85
2021/06/03 00:52:04;;;;;;;9.98;2.30;;;18.60;88.60;;;;;;5004619;28;20568;-86
2021/06/03 00:54:30;;;;;;;3.85;1.83;;;18.50;88.90;;;;;;5003009;28;20166;-83
2021/06/03 00:56:55;;;;;;;4.03;2.15;;;18.50;89.60;;;;;;4997012;28;20077;-86
2021/06/03 00:59:21;;;;;;;3.33;2.15;;;18.50;88.90;;;;;;5006894;28;20046;-85
2021/06/03 01:01:48;;;;;;;5.05;2.03;;;18.50;89.30;;;;;;5017870;28;20048;-85
2021/06/03 01:04:19;;;;;;;3.72;2.05;;;18.50;90.00;;;;;;5017012;28;20140;-86
2021/06/03 01:06:45;;;;;;;4.40;1.92;;;18.40;90.00;;;;;;5016549;28;20054;-87
2021/06/03 01:09:18;;;;;;;3.53;1.83;;;18.40;89.90;;;;;;5017642;28;20108;-84
2021/06/03 01:11:48;;;;;;;3.80;2.10;;;18.30;90.10;;;;;;5018709;28;20552;-85
2021/06/03 01:14:19;;;;;;;3.80;1.70;;;18.40;90.10;;;;;;5018382;28;20643;-86
2021/06/03 01:16:45;;;;;;;4.00;2.10;;;18.30;90.10;;;;;;5034827;28;20529;-84
2021/06/03 01:19:15;;;;;;;4.03;1.83;;;18.30;90.10;;;;;;5016721;28;20053;-85
2021/06/03 01:21:48;;;;;;;4.18;2.00;;;18.30;90.30;;;;;;5012228;28;20043;-83
2021/06/03 01:24:21;;;;;;;3.15;2.10;;;18.30;90.50;;;;;;5006421;28;20081;-84
2021/06/03 01:26:48;;;;;;;3.72;1.92;;;18.60;90.80;;;;;;5015068;28;20050;-86
2021/06/03 01:29:17;;;;;;;3.53;2.10;;;18.30;91.20;;;;;;5015643;28;20046;-86
2021/06/03 01:31:45;;;;;;;4.50;1.90;;;18.30;90.80;;;;;;4999020;28;20100;-86
2021/06/03 01:34:32;;;;;;;3.20;1.88;;;19.90;91.80;;;;;;5013176;28;20045;-87
2021/06/03 01:36:59;;;;;;;3.38;1.98;;;18.30;91.50;;;;;;5000973;28;20062;-85
2021/06/03 01:39:26;;;;;;;5.43;2.30;;;18.30;91.70;;;;;;4999361;28;20056;-85
2021/06/03 01:41:54;;;;;;;3.00;1.83;;;18.20;91.60;;;;;;5016891;28;20046;-86
2021/06/03 01:44:20;;;;;;;4.90;2.40;;;18.20;91.70;;;;;;5002507;28;20051;-86
2021/06/03 01:46:46;;;;;;;4.65;2.17;;;18.20;91.20;;;;;;5002039;28;20050;-82
2021/06/03 01:49:12;;;;;;;3.85;2.00;;;18.10;91.80;;;;;;5017991;28;20042;-86
2021/06/03 01:51:37;;;;;;;2.83;1.83;;;18.10;91.80;;;;;;5019791;28;20549;-87
2021/06/03 01:54:04;;;;;;;4.38;2.38;;;18.00;91.60;;;;;;5019390;28;20056;-84
2021/06/03 01:56:31;;;;;;;3.38;2.22;;;18.00;91.40;;;;;;5001490;28;20084;-85
2021/06/03 01:58:58;;;;;;;6.47;4.13;;;18.00;92.20;;;;;;5004236;28;20054;-85
2021/06/03 02:01:24;;;;;;;5.65;3.20;;;17.90;92.20;;;;;;5018239;28;20052;-86
2021/06/03 02:03:49;;;;;;;7.00;2.60;;;17.90;92.00;;;;;;5027476;28;20038;-85
2021/06/03 02:06:16;;;;;;;4.03;2.00;;;17.90;91.50;;;;;;5014319;28;20064;-86
2021/06/03 02:08:41;;;;;;;3.78;2.00;;;17.90;92.70;;;;;;5016683;28;20172;-86
2021/06/03 02:11:08;;;;;;;3.80;1.83;;;17.80;92.60;;;;;;5014612;28;20057;-86
2021/06/03 02:13:39;;;;;;;3.10;2.10;;;17.70;92.90;;;;;;5013492;28;20076;-86
2021/06/03 02:16:13;;;;;;;4.80;2.25;;;17.60;92.30;;;;;;5012975;28;20091;-86
2021/06/03 02:18:43;;;;;;;4.38;2.00;;;17.90;92.90;;;;;;5031977;28;20038;-87
2021/06/03 02:21:09;;;;;;;3.35;2.00;;;17.50;92.40;;;;;;5011980;28;20038;-86
2021/06/03 02:23:36;;;;;;;4.00;2.38;;;17.50;92.00;;;;;;5004606;28;20113;-86
2021/06/03 02:26:03;;;;;;;4.18;2.03;;;17.40;92.60;;;;;;5023966;28;20096;-87
2021/06/03 02:28:30;;;;;;;4.97;2.15;;;17.40;92.30;;;;;;5023236;28;20045;-87
2021/06/03 02:30:58;;;;;;;4.80;2.40;;;17.40;92.70;;;;;;5024120;28;20135;-86
2021/06/03 02:33:24;;;;;;;3.42;1.90;;;17.40;92.20;;;;;;5023554;28;20108;-87
2021/06/03 02:35:50;;;;;;;6.68;2.50;;;17.40;92.00;;;;;;5006916;28;20041;-86
2021/06/03 02:38:21;;;;;;;3.05;1.98;;;17.30;92.80;;;;;;5022035;28;20072;-87
2021/06/03 02:40:47;;;;;;;3.35;2.10;;;17.20;92.70;;;;;;5009180;28;20140;-87
2021/06/03 02:43:12;;;;;;;4.20;1.98;;;18.20;93.30;;;;;;5006621;28;20057;-87
2021/06/03 02:45:38;;;;;;;5.03;2.53;;;17.20;93.10;;;;;;5006953;28;20048;-87
2021/06/03 02:48:07;;;;;;;4.65;1.95;;;17.10;92.50;;;;;;5023744;28;20041;-87
2021/06/03 02:50:33;;;;;;;4.80;2.27;;;17.20;92.80;;;;;;5007131;28;20042;-87
2021/06/03 02:52:58;;;;;;;5.38;2.17;;;17.20;93.10;;;;;;5007943;28;20033;-86
2021/06/03 02:55:25;;;;;;;5.40;2.08;;;17.40;93.30;;;;;;5008806;28;20041;-87
2021/06/03 02:57:51;;;;;;;5.03;2.10;;;17.20;93.20;;;;;;5023738;28;20076;-87
2021/06/03 03:00:19;;;;;;;6.38;2.33;;;17.10;93.70;;;;;;5024573;28;20046;-87
2021/06/03 03:02:46;;;;;;;4.32;2.30;;;17.10;93.60;;;;;;5041375;28;20045;-88
2021/06/03 03:05:14;;;;;;;3.85;2.33;;;17.00;94.10;;;;;;5022886;28;20141;-86
2021/06/03 03:07:40;;;;;;;3.95;2.08;;;17.00;94.30;;;;;;5024127;28;20045;-86
2021/06/03 03:10:09;;;;;;;4.68;1.95;;;17.00;94.20;;;;;;5024410;28;20076;-87
2021/06/03 03:12:35;;;;;;;7.22;2.45;;;17.00;94.10;;;;;;5023520;28;20046;-87
2021/06/03 03:15:01;;;;;;;4.90;2.55;;;17.60;94.40;;;;;;5042865;28;20041;-87
2021/06/03 03:17:27;;;;;;;4.28;2.30;;;16.70;94.10;;;;;;5029021;28;20046;-86
2021/06/03 03:19:52;;;;;;;3.72;2.25;;;16.60;94.30;;;;;;5025049;28;20061;-87
2021/06/03 03:22:19;;;;;;;4.82;2.50;;;16.70;94.40;;;;;;5010436;28;20041;-86
2021/06/03 03:24:45;;;;;;;4.07;2.50;;;16.70;94.70;;;;;;5010227;28;20140;-86
2021/06/03 03:27:11;;;;;;;4.75;2.25;;;16.60;94.80;;;;;;5010667;28;20508;-87
2021/06/03 03:29:36;;;;;;;3.65;2.33;;;16.50;95.00;;;;;;5026990;28;20052;-87
2021/06/03 03:32:02;;;;;;;7.00;2.72;;;16.50;95.60;;;;;;5007980;28;20490;-87
2021/06/03 03:34:28;;;;;;;4.07;2.40;;;16.50;95.40;;;;;;5025072;28;20034;-87
2021/06/03 03:36:54;;;;;;;3.67;1.90;;;16.50;95.50;;;;;;5026140;28;20046;-87
2021/06/03 03:39:21;;;;;;;5.95;2.35;;;16.50;95.20;;;;;;5009013;28;20045;-87
2021/06/03 03:41:47;;;;;;;3.35;2.28;;;16.50;95.60;;;;;;5007041;28;20050;-87
2021/06/03 03:44:12;;;;;;;6.38;2.45;;;16.40;95.40;;;;;;5008837;28;20042;-87
2021/06/03 03:46:38;;;;;;;3.97;2.30;;;16.40;95.60;;;;;;5009300;28;20053;-87
2021/06/03 03:49:03;;;;;;;3.92;2.28;;;17.90;96.30;;;;;;5010014;28;20046;-87
2021/06/03 03:51:29;;;;;;;6.00;2.45;;;16.40;95.90;;;;;;5010237;28;20045;-88
2021/06/03 03:53:55;;;;;;;3.50;2.20;;;16.40;95.40;;;;;;5028944;28;20038;-86
2021/06/03 03:56:22;;;;;;;5.80;2.42;;;16.30;96.20;;;;;;5010338;28;20037;-87
2021/06/03 03:58:49;;;;;;;5.75;2.50;;;16.40;95.70;;;;;;5010134;28;20041;-86
2021/06/03 04:01:15;;;;;;;4.22;2.38;;;16.40;95.80;;;;;;5025864;28;20046;-87
2021/06/03 04:03:40;;;;;;;5.22;2.28;;;16.50;95.90;;;;;;5024863;28;20037;-87
2021/06/03 04:06:07;;;;;;;4.93;2.60;;;16.50;95.90;;;;;;5026852;28;20034;-86
2021/06/03 04:08:33;;;;;;;6.45;2.70;;;16.50;95.70;;;;;;5026176;28;20107;-87
2021/06/03 04:10:59;;;;;;;3.35;2.13;;;16.50;96.10;;;;;;5042111;28;20041;-87
2021/06/03 04:13:26;;;;;;;3.83;2.40;;;16.50;96.90;;;;;;5024252;28;20042;-86
2021/06/03 04:15:53;;;;;;;4.25;2.50;;;16.50;96.90;;;;;;5025133;28;20041;-87
2021/06/03 04:18:19;;;;;;;4.00;2.33;;;16.50;97.30;;;;;;5026130;28;20045;-87
2021/06/03 04:20:45;;;;;;;5.15;2.53;;;16.60;97.50;;;;;;5023585;28;20132;-87
2021/06/03 04:23:11;;;;;;;4.07;2.35;;;16.60;97.80;;;;;;5023273;28;20048;-87
2021/06/03 04:25:36;;;;;;;3.92;2.25;;;16.60;97.50;;;;;;5025637;28;20048;-87
2021/06/03 04:28:02;;;;;;;4.85;2.10;;;16.70;97.90;;;;;;5026975;28;20044;-87
2021/06/03 04:30:29;;;;;;;4.53;2.50;;;16.70;97.70;;;;;;5028036;28;20042;-87
2021/06/03 04:32:55;;;;;;;3.67;2.30;;;16.80;97.60;;;;;;5028449;28;20054;-86
2021/06/03 04:35:22;;;;;;;3.92;2.10;;;16.80;97.00;;;;;;5043901;28;20044;-87
2021/06/03 04:37:49;;;;;;;4.15;2.42;;;16.80;96.90;;;;;;5026954;28;20069;-87
2021/06/03 04:40:17;;;;;;;3.55;2.45;;;16.90;96.70;;;;;;5025880;28;20042;-86
2021/06/03 04:42:43;;;;;;;5.07;2.35;;;16.90;96.40;;;;;;5024514;28;20046;-87
2021/06/03 04:45:12;;;;;;;3.67;2.15;;;17.00;96.50;;;;;;5024397;28;20065;-87
2021/06/03 04:47:40;;;;;;;3.33;2.17;;;17.20;97.20;;;;;;5025369;28;20510;-86
2021/06/03 04:50:07;;;;;;;7.97;2.25;;;17.30;97.00;;;;;;5026206;28;20498;-86
2021/06/03 04:52:33;;;;;;;5.18;2.42;;;17.40;96.70;;;;;;5040839;28;20073;-87
2021/06/03 04:55:00;;;;;;;4.22;2.45;;;17.50;96.70;;;;;;5023852;28;20034;-87
2021/06/03 04:57:26;;;;;;;5.00;2.55;;;17.60;97.20;;;;;;5023856;28;20478;-87
2021/06/03 04:59:52;;;;;;;5.68;2.47;;;17.80;97.00;;;;;;5023173;28;20049;-87
2021/06/03 05:02:20;;;;;;;5.72;2.60;;;17.90;96.60;;;;;;5038937;28;20041;-87
2021/06/03 05:04:48;;;;;;;8.68;2.33;;;17.90;96.30;;;;;;5038561;28;20045;-86
2021/06/03 05:07:13;;;;;;;5.63;2.63;;;18.00;96.80;;;;;;5022222;28;20046;-87
2021/06/03 05:09:39;;;;;;;4.55;2.42;;;18.10;96.70;;;;;;5022241;28;20457;-87
2021/06/03 05:12:06;;;;;;;4.72;2.30;;;18.10;96.90;;;;;;5038928;28;20042;-87
2021/06/03 05:14:31;;;;;;;4.10;2.40;;;18.20;96.70;;;;;;5022910;28;20041;-87
2021/06/03 05:16:58;;;;;;;3.55;2.33;;;18.20;96.70;;;;;;5022066;28;20038;-87
2021/06/03 05:19:24;;;;;;;4.53;2.15;;;18.30;96.70;;;;;;5021218;28;20044;-86
2021/06/03 05:21:51;;;;;;;4.85;2.50;;;18.30;96.40;;;;;;5036974;28;20041;-86
2021/06/03 05:24:17;;;;;;;5.63;2.38;;;18.30;96.60;;;;;;5020199;28;20045;-87
2021/06/03 05:26:43;;;;;;;4.65;2.90;;;18.40;97.00;;;;;;5019412;28;20509;-87
2021/06/03 05:29:14;;;;;;;5.00;2.63;;;18.40;97.30;;;;;;5022795;28;20050;-87
2021/06/03 05:31:39;;;;;;;4.32;2.10;;;18.50;97.10;;;;;;5020926;28;20413;-87
2021/06/03 05:34:05;;;;;;;8.30;2.80;;;18.60;96.70;;;;;;5019970;28;20030;-87
2021/06/03 05:36:31;;;;;;;3.38;2.08;;;18.60;96.90;;;;;;5018421;28;20568;-85
2021/06/03 05:38:57;;;;;;;4.68;2.58;;;18.70;96.90;;;;;;5019136;28;20129;-86
2021/06/03 05:41:23;;;;;;;3.10;2.10;;;18.90;97.30;;;;;;5034140;28;20046;-84
2021/06/03 05:43:49;;;;;;;3.45;2.15;;;19.00;96.90;;;;;;5015817;28;20052;-86
2021/06/03 05:46:14;;;;;;;3.88;2.20;;;19.00;96.80;;;;;;5015893;28;20402;-85
2021/06/03 05:48:40;;;;;;;4.70;2.20;;;19.20;96.80;;;;;;5014065;28;20104;-83
2021/06/03 05:51:06;;;;;;;4.95;2.42;;;19.30;96.90;;;;;;5013671;28;20561;-86
2021/06/03 05:53:32;;;;;;;4.50;2.30;;;19.30;97.30;;;;;;5003878;28;20062;-83
2021/06/03 05:55:59;;;;;;;3.60;2.10;;;19.40;97.30;;;;;;4993597;28;20046;-86
2021/06/03 05:58:24;;;;;;;3.47;2.15;;;19.50;97.00;;;;;;5009915;28;20145;-86
2021/06/03 06:00:50;;;;;;;4.68;2.17;;;19.60;96.90;;;;;;5013318;28;20125;-87
2021/06/03 06:03:19;;;;;;;6.13;2.05;;;19.60;96.70;;;;;;5013302;28;20045;-86
2021/06/03 06:08:43;;;;;;;4.20;2.50;;;19.60;96.20;;;;;;5002504;28;20053;-84
2021/06/03 06:11:10;;;;;;;4.45;2.40;;;19.50;98.00;;;;;;5028930;28;20518;-85
2021/06/03 06:13:36;;;;;;;3.67;2.30;;;19.60;97.50;;;;;;5012707;28;20065;-86
2021/06/03 06:16:03;;;;;;;4.70;2.30;;;19.70;96.90;;;;;;5012763;28;20045;-85
2021/06/03 06:18:28;;;;;;;3.58;2.10;;;19.70;96.60;;;;;;5013396;28;20115;-86
2021/06/03 06:20:54;;;;;;;4.45;2.70;;;19.70;96.50;;;;;;5028813;28;20045;-86
2021/06/03 06:23:20;;;;;;;4.60;2.60;;;19.80;96.60;;;;;;5009831;28;20137;-86
2021/06/03 06:25:46;;;;;;;4.32;2.42;;;19.90;97.70;;;;;;4995649;28;20490;-87
2021/06/03 06:28:16;;;;;;;5.13;2.30;;;20.10;96.70;;;;;;5013286;28;20030;-86
2021/06/03 06:30:42;;;;;;;4.35;2.22;;;20.10;95.70;;;;;;5011672;28;20056;-85
2021/06/03 06:33:08;;;;;;;4.80;2.30;;;20.40;95.90;;;;;;4995455;28;20050;-86
2021/06/03 06:35:34;;;;;;;3.65;2.28;;;20.50;95.80;;;;;;5011678;28;20532;-85
2021/06/03 06:38:00;;;;;;;5.05;2.60;;;20.70;95.60;;;;;;5011246;28;20033;-86
2021/06/03 06:40:26;;;;;;;5.20;2.72;;;20.80;95.40;;;;;;5010635;28;20473;-84
2021/06/03 06:42:55;;;;;;;4.70;2.30;;;20.90;95.40;;;;;;5001755;28;20050;-84
2021/06/03 06:45:24;;;;;;;6.95;2.45;;;21.20;95.30;;;;;;4994026;28;20750;-85
2021/06/03 06:47:50;;;;;;;4.47;2.25;;;21.40;94.50;;;;;;5010532;28;20104;-85
2021/06/03 06:50:16;;;;;;;3.85;2.10;;;21.60;95.10;;;;;;5010482;28;20046;-85
2021/06/03 06:52:41;;;;;;;4.95;2.40;;;22.10;95.20;;;;;;5010191;28;20045;-84
2021/06/03 06:55:08;;;;;;;5.25;2.20;;;22.20;94.30;;;;;;5009731;28;20383;-87
2021/06/03 06:57:34;;;;;;;5.60;2.25;;;22.30;93.20;;;;;;5010540;28;20132;-83
2021/06/03 07:00:00;;;;;;;6.03;2.10;;;22.40;93.10;;;;;;5003145;28;20463;-86
2021/06/03 07:02:27;;;;;;;4.40;1.90;;;22.30;93.40;;;;;;5026183;28;20593;-88
2021/06/03 07:04:54;;;;;;;3.28;1.83;;;22.50;93.50;;;;;;5009430;28;20494;-85
2021/06/03 07:07:19;;;;;;;3.63;1.90;;;22.60;93.40;;;;;;5008975;28;20038;-87
2021/06/03 07:09:45;;;;;;;3.70;1.67;;;22.70;93.10;;;;;;5026123;28;20422;-87
2021/06/03 07:12:12;;;;;;;4.00;2.25;;;22.60;93.10;;;;;;5026220;28;20418;-86
2021/06/03 07:14:37;;;;;;;4.88;1.70;;;22.70;92.80;;;;;;5009625;28;20045;-85
2021/06/03 07:17:03;;;;;;;2.78;1.65;;;22.60;91.80;;;;;;5010937;28;20042;-87
2021/06/03 07:19:31;;;;;;;4.05;2.00;;;22.70;92.20;;;;;;5010334;28;20045;-86
2021/06/03 07:21:56;;;;;;;3.88;2.08;;;22.70;92.00;;;;;;5009705;28;20379;-83
2021/06/03 07:24:22;;;;;;;4.25;1.60;;;22.90;92.10;;;;;;5009273;28;20042;-87
2021/06/03 07:26:48;;;;;;;2.97;1.73;;;23.10;92.20;;;;;;4998518;28;20108;-87
2021/06/03 07:29:14;;;;;;;5.72;1.92;;;23.20;91.20;;;;;;4993009;28;20502;-86
2021/06/03 07:31:39;;;;;;;3.65;1.88;;;23.20;91.30;;;;;;4992858;28;20072;-87
2021/06/03 07:34:06;;;;;;;7.00;2.10;;;23.30;90.50;;;;;;4993124;28;20037;-86
2021/06/03 07:36:34;;;;;;;6.43;2.00;;;23.40;91.00;;;;;;5005708;28;20054;-86
2021/06/03 07:39:00;;;;;;;4.10;1.77;;;23.60;91.10;;;;;;4989478;28;20046;-86
2021/06/03 07:41:26;;;;;;;3.05;1.70;;;23.80;90.50;;;;;;4992358;28;20464;-87
2021/06/03 07:43:51;;;;;;;3.38;1.90;;;24.00;90.50;;;;;;4992744;28;20152;-85
2021/06/03 07:46:17;;;;;;;3.40;2.03;;;24.50;91.00;;;;;;4992145;28;20050;-88
2021/06/03 07:48:43;;;;;;;2.53;1.48;;;24.20;91.80;;;;;;4989776;28;20048;-88
2021/06/03 07:51:10;;;;;;;4.18;1.75;;;24.30;90.90;;;;;;4989563;28;20061;-86
2021/06/03 07:53:37;;;;;;;4.55;1.85;;;24.30;90.60;;;;;;4991365;28;20050;-88
2021/06/03 07:56:03;;;;;;;4.55;2.00;;;24.30;91.20;;;;;;4992786;28;20491;-88
2021/06/03 07:58:29;;;;;;;4.53;1.83;;;24.20;90.90;;;;;;4998450;28;20088;-88
2021/06/03 08:00:54;;;;;;;3.65;2.00;;;24.30;91.20;;;;;;4997638;28;20457;-89
2021/06/03 08:03:20;;;;;;;4.60;1.88;;;24.20;90.80;;;;;;4997028;28;20047;-88
2021/06/03 08:05:46;;;;;;;3.97;1.73;;;24.30;90.80;;;;;;4997349;28;20042;-85
2021/06/03 08:08:11;;;;;;;2.92;1.77;;;24.50;91.40;;;;;;5000302;28;20543;-89
2021/06/03 08:10:40;;;;;;;3.88;1.95;;;24.50;91.20;;;;;;4999532;28;20041;-89
2021/06/03 08:13:09;;;;;;;4.28;1.83;;;24.60;91.60;;;;;;4996759;28;20056;-88
2021/06/03 08:15:37;;;;;;;2.95;1.80;;;24.80;92.00;;;;;;4997113;28;20038;-89
2021/06/03 08:18:03;;;;;;;2.72;1.50;;;24.80;92.30;;;;;;5004649;28;20077;-90
2021/06/03 08:20:32;;;;;;;3.00;1.70;;;24.80;92.20;;;;;;4999619;28;20037;-89
2021/06/03 08:22:58;;;;;;;3.28;1.85;;;24.90;92.00;;;;;;5016265;28;20037;-89
2021/06/03 08:25:24;;;;;;;3.67;1.92;;;25.00;92.00;;;;;;5016068;28;20042;-89
2021/06/03 08:27:51;;;;;;;2.60;1.60;;;24.80;91.80;;;;;;4999626;28;20038;-89
2021/06/03 08:30:18;;;;;;;3.22;1.60;;;25.30;91.50;;;;;;4999656;28;20080;-89
2021/06/03 08:32:45;;;;;;;5.47;1.77;;;25.40;89.90;;;;;;4999724;28;20395;-88
2021/06/03 08:35:15;;;;;;;3.45;1.70;;;25.50;88.90;;;;;;5013737;28;20030;-87
2021/06/03 08:37:42;;;;;;;3.95;1.60;;;25.30;87.20;;;;;;5007784;28;20033;-88
2021/06/03 08:40:09;;;;;;;4.85;1.63;;;26.30;90.00;;;;;;5016605;28;20041;-88
2021/06/03 08:42:35;;;;;;;3.03;1.50;;;25.80;89.10;;;;;;5015984;28;20072;-86
2021/06/03 08:45:03;;;;;;;2.38;1.30;;;25.90;88.60;;;;;;5017033;28;20073;-87
2021/06/03 08:47:29;;;;;;;3.42;1.73;;;25.90;89.10;;;;;;5016833;28;20090;-88
2021/06/03 08:49:55;;;;;;;2.35;1.40;;;25.90;89.00;;;;;;4999701;28;20441;-90
2021/06/03 08:52:21;;;;;;;2.63;1.40;;;26.00;89.30;;;;;;5015869;28;20052;-89
2021/06/03 08:54:48;;;;;;;3.70;1.50;;;26.10;89.60;;;;;;4999615;28;20081;-90
2021/06/03 08:57:14;;;;;;;3.72;1.35;;;26.00;90.80;;;;;;4999401;28;20506;-90
2021/06/03 08:59:40;;;;;;;2.92;1.50;;;25.70;88.50;;;;;;5015514;28;20046;-90
2021/06/03 09:02:07;;;;;;;4.50;1.55;;;25.90;88.80;;;;;;5015587;28;20100;-90
2021/06/03 09:04:32;;;;;;;4.80;1.50;;;26.40;89.30;;;;;;5015390;28;20141;-88
2021/06/03 09:06:58;;;;;;;3.03;1.77;;;25.90;90.50;;;;;;5015332;28;20065;-89
2021/06/03 09:09:25;;;;;;;5.95;1.80;;;26.20;89.60;;;;;;5015300;28;20038;-89
2021/06/03 09:12:10;;;;;;;3.75;1.70;;;26.40;90.30;;;;;;5015378;28;20042;-90
2021/06/03 09:14:35;;;;;;;5.13;1.70;;;26.10;89.80;;;;;;5031974;28;20479;-90
2021/06/03 09:17:01;;;;;;;5.93;1.70;;;26.40;89.80;;;;;;5016508;28;20121;-90
2021/06/03 09:19:28;;;;;;;4.55;1.60;;;26.60;89.50;;;;;;5014984;28;20141;-90
2021/06/03 09:21:54;;;;;;;2.85;1.60;;;26.60;90.30;;;;;;5014951;28;20104;-90
2021/06/03 09:24:21;;;;;;;4.00;1.60;;;26.70;90.40;;;;;;5014942;28;20046;-90
2021/06/03 09:26:49;;;;;;;3.05;1.70;;;27.00;89.40;;;;;;5016529;28;20117;-90
2021/06/03 09:29:20;;;;;;;2.78;1.58;;;27.40;90.80;;;;;;5016404;28;20065;-88
2021/06/03 09:31:46;;;;;;;3.10;1.67;;;27.40;89.40;;;;;;5000671;28;20050;-89
2021/06/03 09:34:14;;;;;;;3.15;1.63;;;27.20;90.10;;;;;;4999058;28;20498;-89
2021/06/03 09:36:43;;;;;;;2.97;1.63;;;27.00;87.40;;;;;;4998571;28;20575;-89
2021/06/03 09:39:28;;;;;;;3.28;1.88;;;27.00;90.30;;;;;;5014726;28;20046;-89
2021/06/03 09:41:57;;;;;;;3.30;1.70;;;27.20;89.10;;;;;;5015893;28;20042;-90
2021/06/03 09:44:26;;;;;;;3.55;1.60;;;27.30;90.20;;;;;;5015915;28;20033;-91
2021/06/03 09:46:55;;;;;;;5.50;1.42;;;27.50;90.50;;;;;;5015136;28;20042;-91
2021/06/03 09:49:24;;;;;;;3.97;1.80;;;27.70;88.30;;;;;;5014749;28;20038;-91
2021/06/03 09:51:53;;;;;;;3.33;1.60;;;27.80;86.60;;;;;;5014696;28;20513;-89
2021/06/03 09:54:21;;;;;;;3.78;1.70;;;27.70;88.20;;;;;;5014683;28;20038;-90
2021/06/03 09:56:50;;;;;;;3.05;1.50;;;27.70;88.80;;;;;;4998250;28;20411;-91
2021/06/03 09:59:19;;;;;;;2.95;1.60;;;28.00;89.90;;;;;;5014479;28;20509;-90
2021/06/03 10:01:50;;;;;;;4.03;1.70;;;28.20;88.00;;;;;;5025331;28;20037;-90
2021/06/03 10:04:18;;;;;;;2.10;1.50;;;28.40;88.00;;;;;;4998267;28;20124;-91
2021/06/03 10:07:13;;;;;;;4.97;1.65;;;28.70;88.90;;;;;;4998344;28;20378;-91
2021/06/03 10:09:51;;;;;;;3.38;1.60;;;28.70;85.60;;;;;;5002700;28;20589;-91
2021/06/03 10:12:34;;;;;;;4.15;1.70;;;28.70;88.20;;;;;;5014476;28;20576;-91
2021/06/03 10:15:04;;;;;;;4.60;1.38;;;28.70;85.40;;;;;;4998108;28;20449;-90
2021/06/03 10:17:31;;;;;;;;;;;28.70;87.20;;;;;;4998267;28;20038;-90
2021/06/03 10:19:58;;;;;;;2.70;1.55;;;28.40;86.50;;;;;;4997760;28;19996;-90
2021/06/03 10:22:27;;;;;;;3.22;1.77;;;28.40;85.10;;;;;;4997276;28;20073;-90
2021/06/03 10:24:59;;;;;;;4.05;1.85;;;28.50;87.10;;;;;;5005381;28;20045;-90
2021/06/03 10:27:27;;;;;;;3.08;1.70;;;28.20;89.20;;;;;;4999417;28;20038;-90
2021/06/03 10:29:54;;;;;;;5.07;1.65;;;28.80;87.80;;;;;;5015013;28;20095;-90
2021/06/03 10:32:22;;;;;;;3.40;1.50;;;28.80;87.10;;;;;;4993706;28;20038;-87
2021/06/03 10:34:50;;;;;;;4.03;1.80;;;29.70;88.10;;;;;;5011480;28;20153;-90
2021/06/03 10:37:18;;;;;;;4.03;1.90;;;28.10;85.80;;;;;;4994603;28;20583;-89
2021/06/03 10:39:53;;;;;;;4.13;1.70;;;28.40;85.80;;;;;;5013039;28;20052;-87
2021/06/03 10:42:23;;;;;;;4.95;1.88;;;28.60;85.10;;;;;;4995504;28;20508;-90
2021/06/03 10:44:50;;;;;;;4.97;1.90;;;30.80;88.40;;;;;;4994918;28;20108;-89
2021/06/03 10:47:16;;;;;;;3.33;1.90;;;31.10;89.00;;;;;;4995234;28;20472;-89
2021/06/03 10:49:42;;;;;;;3.47;1.63;;;28.90;87.50;;;;;;4995053;28;20045;-89
2021/06/03 10:52:10;;;;;;;5.75;1.90;;;29.80;87.70;;;;;;4995095;28;20145;-91
2021/06/03 10:54:49;;;;;;;5.20;1.95;;;28.80;87.90;;;;;;4994923;28;20042;-88
2021/06/03 10:57:18;;;;;;;3.25;1.60;;;28.70;85.60;;;;;;4995052;28;20096;-89
2021/06/03 10:59:47;;;;;;;3.27;1.80;;;28.90;88.50;;;;;;4994874;28;20141;-88
2021/06/03 11:02:16;;;;;;;2.90;1.60;;;29.10;85.50;;;;;;4994030;28;20394;-89
2021/06/03 11:04:44;;;;;;;2.83;1.80;;;30.20;89.00;;;;;;5009436;28;20046;-79
2021/06/03 11:07:11;;;;;;;4.30;1.90;;;29.40;83.80;;;;;;4992521;28;20038;-90
2021/06/03 11:09:38;;;;;;;3.42;1.75;;;28.60;85.20;;;;;;5011337;28;20042;-90
2021/06/03 11:12:14;;;;;;;3.53;1.92;;;28.80;85.20;;;;;;5009564;28;20398;-88
2021/06/03 11:15:00;;;;;;;3.33;2.10;;;29.10;84.50;;;;;;5010865;28;20041;-88
2021/06/03 11:17:51;;;;;;;3.17;1.98;;;29.00;82.50;;;;;;4993338;28;20525;-89
2021/06/03 11:20:33;;;;;;;3.33;1.80;;;28.70;86.00;;;;;;5008855;28;20046;-87
2021/06/03 11:23:37;;;;;;;3.17;1.52;;;28.40;86.40;;;;;;5010774;28;20464;-87
2021/06/03 11:26:04;;;;;;;4.13;1.98;;;28.20;85.30;;;;;;5001062;28;20603;-88
2021/06/03 11:28:32;;;;;;;3.30;1.90;;;28.10;87.40;;;;;;5007984;28;20042;-89
2021/06/03 11:31:21;;;;;;;4.78;2.00;;;28.40;87.00;;;;;;5008332;28;20137;-85
2021/06/03 11:34:07;;;;;;;2.97;2.00;;;28.20;85.80;;;;;;5007231;28;20050;-86
2021/06/03 11:36:33;;;;;;;3.90;1.92;;;28.10;86.30;;;;;;5006940;28;20567;-84
2021/06/03 11:39:00;;;;;;;3.67;1.75;;;28.10;87.40;;;;;;5008555;28;20045;-89
2021/06/03 11:41:35;;;;;;;2.97;1.73;;;28.00;89.10;;;;;;5067406;22;20074;-84
2021/06/03 11:44:10;;;;;;;2.72;1.58;;;27.80;84.80;;;;;;5057325;28;20135;-84
2021/06/03 11:47:00;;;;;;;3.72;1.73;;;27.70;88.90;;;;;;5072535;28;20484;-84
2021/06/03 11:49:37;;;;;;;4.30;2.05;;;27.70;86.80;;;;;;5079005;28;20119;-83
2021/06/03 11:52:09;;;;;;;7.50;2.00;;;27.80;90.20;;;;;;5077447;28;20041;-85
2021/06/03 11:54:50;;;;;;;3.15;1.60;;;27.90;88.20;;;;;;5077524;28;20460;-82
2021/06/03 11:57:16;;;;;;;4.10;1.70;;;27.70;84.30;;;;;;5060586;28;20410;-84
2021/06/03 11:59:58;;;;;;;7.63;1.67;;;27.80;88.40;;;;;;5068113;28;20120;-85
2021/06/03 12:02:28;;;;;;;3.63;1.80;;;27.90;88.50;;;;;;5040720;28;20049;-83
2021/06/03 12:05:13;;;;;;;4.20;1.98;;;27.90;84.40;;;;;;5040761;28;20041;-83
2021/06/03 12:07:43;;;;;;;3.38;1.75;;;27.90;86.40;;;;;;5058668;28;20041;-83
2021/06/03 12:10:09;;;;;;;2.78;1.70;;;27.90;89.00;;;;;;5041088;28;20451;-84
2021/06/03 12:12:35;;;;;;;3.85;1.80;;;27.90;84.00;;;;;;5059676;28;20061;-85
2021/06/03 12:15:16;;;;;;;2.50;1.60;;;27.90;84.20;;;;;;5040848;28;20037;-84
2021/06/03 12:17:42;;;;;;;2.67;1.70;;;27.90;82.00;;;;;;5041244;28;20073;-82
2021/06/03 12:20:10;;;;;;;4.05;1.70;;;27.90;81.70;;;;;;5069570;28;20048;-85
2021/06/03 12:22:36;;;;;;;4.20;2.00;;;27.90;82.80;;;;;;5081639;28;20056;-84
2021/06/03 12:25:04;;;;;;;4.07;2.10;;;27.70;81.90;;;;;;5082272;28;20044;-83
2021/06/03 12:27:35;;;;;;;2.83;1.70;;;27.80;81.50;;;;;;5082744;28;20029;-84
2021/06/03 12:30:15;;;;;;;3.92;2.25;;;28.00;84.60;;;;;;5082052;28;20510;-84
2021/06/03 12:32:42;;;;;;;3.55;1.88;;;28.00;81.50;;;;;;5083319;28;20100;-83
2021/06/03 12:35:08;;;;;;;3.92;1.73;;;28.00;82.30;;;;;;5081771;28;20040;-85
2021/06/03 12:37:36;;;;;;;2.88;1.70;;;28.00;82.50;;;;;;5083114;28;20049;-84
2021/06/03 12:40:05;;;;;;;5.47;1.63;;;27.90;88.80;;;;;;5081101;28;20044;-85
2021/06/03 12:42:31;;;;;;;6.28;1.52;;;26.90;86.60;;;;;;5080840;28;20051;-83
2021/06/03 12:45:00;;;;;;;4.78;1.10;;;26.00;85.90;;;;;;5082372;28;20119;-83
2021/06/03 12:47:30;;;;;;;7.82;1.65;;;24.20;90.20;;;;;;5086057;28;20049;-83
2021/06/03 12:50:13;;;;;;;5.35;1.60;;;22.60;94.10;;;;;;5087942;28;20059;-84
2021/06/03 12:52:39;;;;;;;3.75;1.52;;;21.20;96.60;;;;;;5088801;28;20055;-85
2021/06/03 12:55:07;;;;;;;2.60;1.42;;;20.20;97.30;;;;;;5080346;28;20037;-85